Apj Shirin — 3EVS6 — position and weather

sailwx.info

Track history (hours):
 
Tides and Currents Weather Stations Pressure Air Temp Water Temp Dewpoint Dewpoint Depression Visibility Wind Speed Wind Dir Waves Ship Positions

Apj Shirin

Last reported at 2017-Sep-19 22:53 UTC. Time now 2017-Oct-22 23:15 UTC.
Position N 01°09' E 103°45'.
Warning: this ship's position is 33 days out of date.

Length 189 m; draft 10.7 m.

Type: Cargo ship. MMSI: 373223000.

Date/timePositionNaut miles runAvg speedWind from/ knotsBaromVisibWave heightAir tempDewpointWater temp
2017-Sep-19 22:53N 01°09' E 103°45'1 3.6
2017-Sep-19 22:30N 01°10' E 103°47'2 3.5
2017-Sep-19 21:59N 01°11' E 103°48'2 3.5
2017-Sep-19 21:30N 01°11' E 103°50'2 3.9
2017-Sep-19 20:56N 01°12' E 103°52'10 4.4
2017-Sep-19 18:38N 01°18' E 104°00'0 0.0
2017-Sep-19 18:10N 01°18' E 104°00'0 0.1
2017-Sep-19 17:41N 01°18' E 104°00'0 0.0
2017-Sep-19 17:26N 01°18' E 104°00'3411.6
2017-Sep-19 14:29N 01°14' E 103°26'510.7
2017-Sep-19 13:59N 01°12' E 103°31'511.3
2017-Sep-19 13:30N 01°11' E 103°36'611.6
2017-Sep-19 13:00N 01°10' E 103°42'511.0
2017-Sep-19 12:30N 01°10' E 103°47'612.9
2017-Sep-19 12:00N 01°13' E 103°53'611.2
2017-Sep-19 11:30N 01°15' E 103°58'3 4.0
2017-Sep-19 10:47N 01°18' E 104°00'0 0.0
2017-Sep-19 07:56N 01°18' E 104°00'0 0.0
2017-Sep-19 06:38N 01°18' E 104°00'0 0.0
2017-Sep-19 06:20N 01°18' E 104°00'0 0.1
2017-Sep-18 23:35N 01°17' E 104°00'1 2.0
2017-Sep-18 23:05N 01°16' E 104°00'1 5.6
2017-Sep-18 22:55N 01°17' E 104°01'  
Track history (hours):
 
Tides and Currents Weather Stations Pressure Air Temp Water Temp Dewpoint Dewpoint Depression Visibility Wind Speed Wind Dir Waves Ship Positions

Apj Shirin

Last reported at 2017-Sep-19 22:53 UTC. Time now 2017-Oct-22 23:15 UTC.
Position N 01°09' E 103°45'.
Warning: this ship's position is 33 days out of date.

Length 189 m; draft 10.7 m.

Type: Cargo ship. MMSI: 373223000.

Date/timePositionNaut miles runAvg speedWind from/ knotsBaromVisibWave heightAir tempDewpointWater temp
2017-Sep-19 22:53N 01°09' E 103°45'1 3.6
2017-Sep-19 22:30N 01°10' E 103°47'2 3.5
2017-Sep-19 21:59N 01°11' E 103°48'2 3.5
2017-Sep-19 21:30N 01°11' E 103°50'2 3.9
2017-Sep-19 20:56N 01°12' E 103°52'10 4.4
2017-Sep-19 18:38N 01°18' E 104°00'0 0.0
2017-Sep-19 18:10N 01°18' E 104°00'0 0.1
2017-Sep-19 17:41N 01°18' E 104°00'0 0.0
2017-Sep-19 17:26N 01°18' E 104°00'3411.6
2017-Sep-19 14:29N 01°14' E 103°26'510.7
2017-Sep-19 13:59N 01°12' E 103°31'511.3
2017-Sep-19 13:30N 01°11' E 103°36'611.6
2017-Sep-19 13:00N 01°10' E 103°42'511.0
2017-Sep-19 12:30N 01°10' E 103°47'612.9
2017-Sep-19 12:00N 01°13' E 103°53'611.2
2017-Sep-19 11:30N 01°15' E 103°58'3 4.0
2017-Sep-19 10:47N 01°18' E 104°00'0 0.0
2017-Sep-19 07:56N 01°18' E 104°00'0 0.0
2017-Sep-19 06:38N 01°18' E 104°00'0 0.0
2017-Sep-19 06:20N 01°18' E 104°00'0 0.1
2017-Sep-18 23:35N 01°17' E 104°00'1 2.0
2017-Sep-18 23:05N 01°16' E 104°00'1 5.6
2017-Sep-18 22:55N 01°17' E 104°01'  

Dump ship's entire track history